Time;durP1;ratioP1;P1;durP2;ratioP2;P2;SDS_P1;SDS_P2;PMS_P1;PMS_P2;Temp;Humidity;BMP_temperature;BMP_pressure;BME280_temperature;BME280_humidity;BME280_pressure;Samples;Min_cycle;Max_cycle;Signal;HPM_P1;HPM_P2
2024/03/10 00:00:42;;;;;;;19.50;11.20;;;;;;;8.48;64.82;99571.16;130044;1276;114695;-61
2024/03/10 00:04:07;;;;;;;18.70;10.50;;;;;;;8.47;64.51;99569.09;129739;1278;114753;-61
2024/03/10 00:07:09;;;;;;;19.70;10.70;;;;;;;8.49;64.79;99569.88;129846;1271;127806;-62
2024/03/10 00:10:14;;;;;;;17.00;9.80;;;;;;;8.50;64.45;99563.78;129930;1257;115224;-62
2024/03/10 00:13:16;;;;;;;18.10;11.00;;;;;;;8.51;64.77;99559.45;129759;1260;114744;-63
2024/03/10 00:16:18;;;;;;;17.70;10.90;;;;;;;8.50;64.65;99560.73;129967;1257;115292;-61
2024/03/10 00:19:20;;;;;;;15.40;10.30;;;;;;;8.52;64.96;99559.24;129945;1257;114699;-63
2024/03/10 00:22:22;;;;;;;20.50;11.70;;;;;;;8.52;64.87;99558.68;129978;1278;114719;-61
2024/03/10 00:25:26;;;;;;;20.00;10.90;;;;;;;8.52;64.70;99553.52;129888;1276;115099;-62
2024/03/10 00:28:29;;;;;;;14.30;8.20;;;;;;;8.51;64.82;99551.95;129896;1261;115244;-62
2024/03/10 00:31:31;;;;;;;18.30;9.90;;;;;;;8.50;65.01;99551.65;129973;1261;115058;-62
2024/03/10 00:34:37;;;;;;;19.00;11.30;;;;;;;8.49;65.06;99551.20;129832;1260;114779;-61
2024/03/10 00:37:39;;;;;;;20.00;12.60;;;;;;;8.48;65.39;99548.92;129633;1276;114859;-61
2024/03/10 00:40:41;;;;;;;16.30;10.20;;;;;;;8.47;65.17;99549.31;129824;1278;114930;-62
2024/03/10 00:43:43;;;;;;;14.00;9.40;;;;;;;8.46;65.32;99547.74;129959;1275;114709;-62
2024/03/10 00:46:45;;;;;;;17.30;10.10;;;;;;;8.44;65.27;99544.48;129636;1274;114813;-61
2024/03/10 00:49:47;;;;;;;12.50;7.30;;;;;;;8.42;65.34;99540.85;129959;1259;115185;-62
2024/03/10 00:52:51;;;;;;;15.50;10.00;;;;;;;8.40;65.34;99541.13;129741;1260;114761;-62
2024/03/10 00:55:54;;;;;;;14.40;9.20;;;;;;;8.38;65.58;99542.12;129607;1263;114935;-63
2024/03/10 00:59:00;;;;;;;15.60;8.90;;;;;;;8.36;65.46;99536.02;129541;1261;115298;-61
2024/03/10 01:02:03;;;;;;;10.80;5.90;;;;;;;8.33;65.90;99533.66;129730;1279;114785;-61
2024/03/10 01:05:06;;;;;;;16.30;10.70;;;;;;;8.32;65.84;99525.02;129764;1279;114813;-61
2024/03/10 01:08:08;;;;;;;18.00;12.10;;;;;;;8.31;65.55;99525.94;129785;1260;114758;-62
2024/03/10 01:11:11;;;;;;;13.20;9.00;;;;;;;8.29;65.71;99522.46;129570;1260;365987;-62
2024/03/10 01:14:17;;;;;;;19.00;10.30;;;;;;;8.27;65.76;99516.89;129543;1279;114926;-62
2024/03/10 01:17:19;;;;;;;16.60;9.80;;;;;;;8.26;65.71;99514.67;129606;1263;115420;-62
2024/03/10 01:20:21;;;;;;;14.60;9.00;;;;;;;8.22;65.78;99512.36;129638;1276;114700;-62
2024/03/10 01:23:23;;;;;;;20.40;11.40;;;;;;;8.17;65.81;99513.66;129750;1279;114741;-62
2024/03/10 01:26:36;;;;;;;19.80;10.50;;;;;;;8.11;66.05;99513.63;129643;1270;114996;-61
2024/03/10 01:29:38;;;;;;;18.70;11.50;;;;;;;8.08;66.21;99508.48;129792;1260;114747;-62
2024/03/10 01:32:43;;;;;;;18.20;11.10;;;;;;;8.04;66.08;99500.50;129646;1276;115208;-62
2024/03/10 01:35:45;;;;;;;21.10;12.90;;;;;;;8.00;66.12;99496.25;129459;1279;115505;-61
2024/03/10 01:38:48;;;;;;;16.70;11.70;;;;;;;7.96;66.61;99491.14;129872;1279;114724;-63
2024/03/10 01:41:53;;;;;;;16.20;9.70;;;;;;;7.92;66.25;99486.36;129666;1260;114818;-62
2024/03/10 01:44:59;;;;;;;15.50;9.40;;;;;;;7.89;66.30;99490.08;129741;1261;114714;-62
2024/03/10 01:48:02;;;;;;;13.60;7.80;;;;;;;7.83;66.46;99486.27;129743;1257;114701;-61
2024/03/10 01:51:06;;;;;;;19.30;11.50;;;;;;;7.79;67.00;99480.80;129756;1262;114725;-65
2024/03/10 01:54:11;;;;;;;16.60;10.70;;;;;;;7.74;67.15;99480.13;129661;1264;114907;-66
2024/03/10 01:57:14;;;;;;;16.10;11.30;;;;;;;7.71;67.31;99483.48;129578;1278;127885;-66
2024/03/10 02:00:16;;;;;;;20.00;12.80;;;;;;;7.70;67.33;99481.58;130005;1278;114764;-63
2024/03/10 02:03:19;;;;;;;17.90;11.00;;;;;;;7.72;67.72;99474.74;130075;1278;114734;-62
2024/03/10 02:06:21;;;;;;;14.00;7.50;;;;;;;7.74;67.63;99469.64;130192;1256;115083;-70
2024/03/10 02:09:24;;;;;;;16.40;9.20;;;;;;;7.78;67.53;99467.00;130041;1278;114821;-67
2024/03/10 02:12:28;;;;;;;18.60;11.30;;;;;;;7.81;67.73;99460.25;129674;1262;114687;-71
2024/03/10 02:15:30;;;;;;;21.40;11.80;;;;;;;7.85;67.43;99469.30;130050;1260;115373;-69
2024/03/10 02:18:33;;;;;;;20.30;12.70;;;;;;;7.87;67.70;99463.98;130152;1278;114751;-70
2024/03/10 02:21:38;;;;;;;17.90;10.60;;;;;;;7.91;67.27;99459.94;130534;1262;114788;-69
2024/03/10 02:24:43;;;;;;;16.90;9.70;;;;;;;7.95;67.53;99458.31;130621;1259;115157;-70
2024/03/10 02:27:49;;;;;;;14.90;8.80;;;;;;;7.99;67.41;99456.83;129732;1259;115369;-64
2024/03/10 02:30:57;;;;;;;11.60;7.20;;;;;;;8.03;67.41;99452.36;129989;1259;128698;-66
2024/03/10 02:47:23;;;;;;;18.80;12.20;;;;;;;8.18;67.20;99443.04;129683;1260;128234;-60
2024/03/10 02:50:26;;;;;;;15.70;9.50;;;;;;;8.20;67.05;99443.79;130022;1257;114696;-63
2024/03/10 02:53:30;;;;;;;17.00;10.50;;;;;;;8.22;67.21;99437.48;129976;1257;114740;-63
2024/03/10 02:56:32;;;;;;;18.10;10.20;;;;;;;8.24;67.10;99438.10;129935;1259;114785;-61
2024/03/10 02:59:35;;;;;;;15.90;10.40;;;;;;;8.24;67.22;99437.76;129942;1278;116394;-61
2024/03/10 03:02:37;;;;;;;20.40;11.80;;;;;;;8.24;66.92;99431.53;130059;1257;115297;-61
2024/03/10 03:05:39;;;;;;;19.60;13.30;;;;;;;8.24;66.95;99430.64;129654;1276;128664;-61
2024/03/10 03:08:42;;;;;;;21.90;13.30;;;;;;;8.24;66.81;99429.02;129939;1259;114823;-63
2024/03/10 03:11:45;;;;;;;18.90;10.30;;;;;;;8.25;66.77;99424.70;129889;1260;114700;-61
2024/03/10 03:14:47;;;;;;;19.30;11.60;;;;;;;8.25;66.89;99420.26;129968;1259;114808;-61
2024/03/10 03:17:50;;;;;;;21.40;11.50;;;;;;;8.25;66.65;99416.67;129958;1260;114714;-62
2024/03/10 03:20:52;;;;;;;17.40;10.50;;;;;;;8.25;66.67;99414.73;129797;1278;115086;-61
2024/03/10 03:23:54;;;;;;;20.70;12.60;;;;;;;8.25;66.70;99412.25;129902;1276;114734;-62
2024/03/10 03:26:56;;;;;;;22.60;13.70;;;;;;;8.25;66.66;99409.91;130068;1278;114651;-62
2024/03/10 03:29:58;;;;;;;14.30;8.90;;;;;;;8.26;66.61;99406.69;129724;1262;114841;-61
2024/03/10 03:33:01;;;;;;;21.40;11.50;;;;;;;8.26;66.48;99408.81;129883;1259;114705;-63
2024/03/10 03:36:04;;;;;;;20.60;10.80;;;;;;;8.26;66.58;99408.64;130059;1259;114749;-64
2024/03/10 03:39:13;;;;;;;15.40;9.40;;;;;;;8.27;66.24;99410.35;129577;1264;114814;-62
2024/03/10 03:42:15;;;;;;;16.60;10.20;;;;;;;8.27;66.42;99407.67;129604;1260;114789;-61
2024/03/10 03:45:17;;;;;;;12.60;7.10;;;;;;;8.28;66.39;99408.53;129743;1263;114882;-64
2024/03/10 03:48:19;;;;;;;16.60;10.20;;;;;;;8.28;66.49;99409.90;130089;1278;114712;-62
2024/03/10 03:51:22;;;;;;;16.10;8.80;;;;;;;8.28;66.38;99413.48;129976;1259;114708;-64
2024/03/10 03:54:24;;;;;;;18.80;10.40;;;;;;;8.30;66.28;99410.02;129885;1259;115224;-61
2024/03/10 03:57:26;;;;;;;15.00;10.60;;;;;;;8.30;66.44;99410.70;130001;1260;115348;-64
2024/03/10 04:00:29;;;;;;;17.70;11.30;;;;;;;8.32;66.35;99409.04;130084;1278;114664;-64
2024/03/10 04:03:31;;;;;;;16.50;10.90;;;;;;;8.32;66.18;99407.75;129699;1278;114824;-67
2024/03/10 04:06:33;;;;;;;17.00;9.80;;;;;;;8.34;66.45;99402.85;130013;1278;114717;-63
2024/03/10 04:09:36;;;;;;;12.80;7.60;;;;;;;8.35;66.46;99404.20;129971;1278;114705;-70
2024/03/10 04:12:39;;;;;;;15.80;9.80;;;;;;;8.36;66.31;99401.86;129704;1275;114820;-69
2024/03/10 04:15:41;;;;;;;15.00;9.30;;;;;;;8.37;66.46;99395.77;130052;1257;115090;-62
2024/03/10 04:18:43;;;;;;;17.30;9.80;;;;;;;8.36;66.30;99390.98;130073;1259;114875;-72
2024/03/10 04:21:45;;;;;;;12.30;7.40;;;;;;;8.37;66.45;99390.75;129813;1278;114847;-67
2024/03/10 04:24:48;;;;;;;15.90;10.00;;;;;;;8.38;66.43;99385.94;130066;1278;114766;-69
2024/03/10 04:27:53;;;;;;;15.70;10.80;;;;;;;8.39;66.34;99378.60;129985;1259;114784;-71
2024/03/10 04:30:55;;;;;;;14.00;8.00;;;;;;;8.38;66.26;99382.91;129742;1260;114860;-64
2024/03/10 04:33:58;;;;;;;16.60;9.90;;;;;;;8.37;66.19;99377.42;129797;1260;114782;-64
2024/03/10 04:37:01;;;;;;;10.90;6.90;;;;;;;8.37;66.01;99373.14;130037;1278;114756;-67
2024/03/10 04:40:06;;;;;;;19.20;11.10;;;;;;;8.38;66.03;99377.59;129780;1278;114891;-63
2024/03/10 04:43:09;;;;;;;20.70;11.60;;;;;;;8.38;65.82;99380.59;130128;1254;114801;-62
2024/03/10 04:46:11;;;;;;;16.50;9.80;;;;;;;8.37;66.13;99380.11;130126;1277;128711;-62
2024/03/10 04:49:17;;;;;;;13.00;7.10;;;;;;;8.37;65.99;99377.41;129738;1277;116510;-63
2024/03/10 04:52:19;;;;;;;14.70;9.20;;;;;;;8.37;65.97;99378.66;129933;1261;114820;-64
2024/03/10 04:55:21;;;;;;;18.90;10.40;;;;;;;8.36;65.76;99376.60;130128;1256;114730;-66
2024/03/10 04:58:24;;;;;;;14.70;9.40;;;;;;;8.35;65.81;99378.03;130078;1254;114783;-67
2024/03/10 05:01:28;;;;;;;14.40;7.50;;;;;;;8.34;65.70;99377.40;130105;1277;114785;-65
2024/03/10 05:04:30;;;;;;;15.90;9.90;;;;;;;8.33;65.61;99374.10;129698;1254;128434;-65
2024/03/10 05:07:32;;;;;;;16.80;9.40;;;;;;;8.32;65.71;99377.50;130175;1254;114719;-66
2024/03/10 05:10:34;;;;;;;12.90;7.90;;;;;;;8.32;65.69;99373.59;130190;1259;114948;-64
2024/03/10 05:13:39;;;;;;;16.20;9.60;;;;;;;8.32;65.34;99375.41;129948;1276;114901;-67
2024/03/10 05:16:43;;;;;;;18.40;11.00;;;;;;;8.31;65.61;99381.86;130148;1277;115134;-65
2024/03/10 05:19:45;;;;;;;18.50;10.00;;;;;;;8.30;65.74;99379.58;129879;1261;114881;-63
2024/03/10 05:22:52;;;;;;;18.30;9.40;;;;;;;8.30;65.76;99381.36;130062;1259;114718;-64
2024/03/10 05:25:54;;;;;;;17.10;10.80;;;;;;;8.30;65.79;99376.39;129857;1262;115369;-64
2024/03/10 05:28:56;;;;;;;15.70;8.70;;;;;;;8.30;65.48;99379.25;130304;1273;114644;-64
2024/03/10 05:31:58;;;;;;;15.60;7.20;;;;;;;8.29;65.85;99378.92;130249;1273;114754;-66
2024/03/10 05:35:05;;;;;;;18.00;9.90;;;;;;;8.29;65.70;99382.65;130009;1277;116402;-68
2024/03/10 05:38:07;;;;;;;17.50;9.40;;;;;;;8.29;65.57;99377.52;129811;1270;114767;-65
2024/03/10 05:41:12;;;;;;;19.20;11.70;;;;;;;8.29;65.47;99376.45;130011;1260;115074;-66
2024/03/10 05:44:23;;;;;;;17.90;11.20;;;;;;;8.30;65.39;99375.30;129963;1254;115183;-67
2024/03/10 05:47:26;;;;;;;17.00;11.30;;;;;;;8.29;64.96;99371.06;130242;1277;114689;-66
2024/03/10 05:50:29;;;;;;;19.00;11.90;;;;;;;8.30;65.40;99367.49;129851;1262;114897;-65
2024/03/10 05:53:31;;;;;;;16.20;9.00;;;;;;;8.30;65.19;99365.86;130333;1251;114781;-67
2024/03/10 05:56:33;;;;;;;15.90;9.70;;;;;;;8.30;65.17;99359.08;130459;1257;114776;-65
2024/03/10 05:59:35;;;;;;;15.00;9.20;;;;;;;8.32;65.20;99361.67;130101;1257;127584;-69
2024/03/10 06:02:37;;;;;;;14.60;9.10;;;;;;;8.35;65.18;99364.74;130477;1256;115087;-62
2024/03/10 06:05:39;;;;;;;14.90;9.10;;;;;;;8.36;65.00;99366.99;130482;1256;115022;-62
2024/03/10 06:08:41;;;;;;;14.10;8.50;;;;;;;8.37;64.74;99366.73;130256;1259;114897;-60
2024/03/10 06:11:43;;;;;;;17.00;9.30;;;;;;;8.40;65.09;99363.95;130453;1255;114781;-61
2024/03/10 06:14:46;;;;;;;13.90;8.80;;;;;;;8.42;64.88;99366.83;130375;1257;114791;-60
2024/03/10 06:18:02;;;;;;;14.20;8.50;;;;;;;8.44;64.72;99361.23;130053;1258;114896;-61
2024/03/10 06:27:46;;;;;;;15.80;9.20;;;;;;;8.55;64.51;99354.95;130257;1251;114794;-63
2024/03/10 06:30:50;;;;;;;16.20;9.60;;;;;;;8.58;64.63;99350.14;130211;1255;115301;-62
2024/03/10 06:33:52;;;;;;;13.60;10.00;;;;;;;8.62;64.34;99350.79;130237;1266;114803;-61
2024/03/10 06:36:55;;;;;;;14.10;9.00;;;;;;;8.67;64.64;99346.23;130242;1261;115185;-61
2024/03/10 06:39:57;;;;;;;15.10;9.30;;;;;;;8.73;64.46;99348.55;130299;1257;114698;-60
2024/03/10 06:43:00;;;;;;;13.60;8.90;;;;;;;8.78;64.34;99349.52;129999;1251;114861;-61
2024/03/10 06:46:02;;;;;;;10.50;5.50;;;;;;;8.85;64.14;99349.88;130323;1251;114697;-60
2024/03/10 06:49:04;;;;;;;14.80;8.10;;;;;;;8.91;64.10;99354.66;130326;1255;114782;-61
2024/03/10 06:52:07;;;;;;;12.30;8.50;;;;;;;8.98;63.79;99353.93;130251;1251;114728;-62
2024/03/10 06:55:14;;;;;;;15.00;9.00;;;;;;;9.04;63.83;99351.77;130299;1255;114780;-62
2024/03/10 06:58:17;;;;;;;14.00;7.70;;;;;;;9.11;63.60;99349.06;130220;1274;114737;-62
2024/03/10 07:01:23;;;;;;;10.20;6.20;;;;;;;9.18;63.60;99345.11;130369;1256;114701;-63
2024/03/10 07:04:26;;;;;;;12.80;8.00;;;;;;;9.22;63.26;99348.39;130045;1251;114819;-63
2024/03/10 07:07:29;;;;;;;15.40;8.50;;;;;;;9.26;62.98;99343.04;130376;1274;114840;-69
2024/03/10 07:10:31;;;;;;;11.50;7.40;;;;;;;9.29;63.02;99344.26;130431;1272;114814;-64
2024/03/10 07:13:33;;;;;;;14.80;8.00;;;;;;;9.36;62.91;99346.18;130379;1251;114709;-64
2024/03/10 07:16:35;;;;;;;12.10;7.60;;;;;;;9.40;62.69;99348.03;130351;1251;115261;-68
2024/03/10 07:19:40;;;;;;;11.20;6.20;;;;;;;9.44;62.31;99351.73;130332;1251;114808;-65
2024/03/10 07:22:42;;;;;;;10.60;6.70;;;;;;;9.46;61.88;99351.80;130218;1274;114826;-68
2024/03/10 07:25:44;;;;;;;13.00;8.20;;;;;;;9.47;61.83;99348.56;130453;1255;114942;-67
2024/03/10 07:28:47;;;;;;;11.60;6.70;;;;;;;9.48;61.63;99348.86;130433;1274;114766;-64
2024/03/10 07:31:50;;;;;;;11.90;6.60;;;;;;;9.50;61.62;99342.98;130358;1260;116373;-66
2024/03/10 07:34:52;;;;;;;11.10;7.40;;;;;;;9.52;61.32;99341.42;130550;1251;114846;-64
2024/03/10 07:37:55;;;;;;;9.80;6.10;;;;;;;9.56;61.42;99341.03;130192;1253;114819;-63
2024/03/10 07:40:57;;;;;;;11.40;7.40;;;;;;;9.66;61.43;99336.70;130365;1274;114728;-62
2024/03/10 07:43:59;;;;;;;11.70;7.70;;;;;;;9.79;61.11;99338.95;130475;1255;115195;-65
2024/03/10 07:47:02;;;;;;;10.10;6.30;;;;;;;9.89;60.83;99334.35;130232;1256;114865;-70
2024/03/10 07:50:06;;;;;;;10.70;5.80;;;;;;;9.96;60.65;99336.80;130378;1264;115335;-63
2024/03/10 07:53:09;;;;;;;11.00;6.50;;;;;;;9.98;60.23;99343.63;130374;1251;127631;-65
2024/03/10 07:56:11;;;;;;;10.20;6.80;;;;;;;10.00;60.55;99345.48;130376;1257;115249;-65
2024/03/10 07:59:13;;;;;;;8.50;5.30;;;;;;;10.01;60.50;99344.88;130341;1254;116411;-65
2024/03/10 08:02:16;;;;;;;8.70;5.80;;;;;;;10.02;60.11;99349.30;130446;1251;114702;-68
2024/03/10 08:05:19;;;;;;;9.30;5.70;;;;;;;10.03;60.32;99342.82;130131;1251;116453;-71
2024/03/10 08:08:21;;;;;;;10.10;6.00;;;;;;;10.06;60.37;99339.77;130391;1257;115236;-67
2024/03/10 08:11:23;;;;;;;8.50;4.90;;;;;;;10.09;60.39;99339.00;130320;1274;114741;-63
2024/03/10 08:14:25;;;;;;;9.80;6.30;;;;;;;10.14;60.24;99338.33;130408;1274;114731;-65
2024/03/10 08:17:28;;;;;;;11.00;6.70;;;;;;;10.24;60.25;99332.70;130143;1274;116542;-62
2024/03/10 08:20:30;;;;;;;10.50;5.40;;;;;;;10.41;60.36;99325.77;130336;1251;114949;-62
2024/03/10 08:23:36;;;;;;;11.70;7.50;;;;;;;10.60;59.83;99322.63;130480;1257;114714;-61
2024/03/10 08:26:43;;;;;;;8.00;5.90;;;;;;;10.76;60.00;99329.23;130165;1258;114887;-63
2024/03/10 08:29:45;;;;;;;;;;;;;;;10.88;60.14;99332.03;130318;1256;128514;-63
2024/03/10 08:32:48;;;;;;;7.50;4.60;;;;;;;10.93;60.02;99330.92;130343;1256;114657;-68
2024/03/10 08:35:50;;;;;;;10.10;6.20;;;;;;;10.98;59.69;99327.80;130413;1256;115177;-64
2024/03/10 08:38:52;;;;;;;10.90;6.90;;;;;;;10.99;59.37;99321.48;130272;1251;114797;-63
2024/03/10 08:41:55;;;;;;;9.50;6.40;;;;;;;11.03;59.53;99316.20;130512;1274;114828;-63
2024/03/10 08:44:57;;;;;;;8.10;5.00;;;;;;;11.11;59.56;99305.84;130421;1273;114728;-63
2024/03/10 08:47:59;;;;;;;10.30;5.00;;;;;;;11.25;59.44;99298.99;130442;1256;114709;-70
2024/03/10 08:51:01;;;;;;;8.80;6.20;;;;;;;11.39;59.23;99297.69;130374;1256;114773;-63
2024/03/10 08:54:07;;;;;;;12.10;7.30;;;;;;;11.54;59.39;99299.70;130292;1251;115467;-62
2024/03/10 08:57:10;;;;;;;8.50;5.30;;;;;;;11.64;58.94;99303.85;130445;1257;114792;-68
2024/03/10 09:00:17;;;;;;;10.70;6.60;;;;;;;11.66;57.91;99303.82;130397;1272;115253;-71
2024/03/10 09:03:21;;;;;;;8.10;5.40;;;;;;;11.65;57.69;99310.72;130564;1257;114715;-70
2024/03/10 09:06:26;;;;;;;7.00;4.70;;;;;;;11.60;57.13;99305.37;130387;1251;127950;-71
2024/03/10 09:09:28;;;;;;;9.50;6.70;;;;;;;11.55;57.15;99305.54;130407;1274;114753;-72
2024/03/10 09:12:30;;;;;;;6.90;4.40;;;;;;;11.54;57.43;99301.85;130443;1255;114855;-65
2024/03/10 09:15:32;;;;;;;8.90;6.00;;;;;;;11.57;57.07;99298.80;130520;1274;114692;-65
2024/03/10 09:18:34;;;;;;;10.40;6.40;;;;;;;11.65;57.28;99296.94;130382;1274;114811;-72
2024/03/10 09:21:37;;;;;;;9.30;6.00;;;;;;;11.75;57.31;99298.44;130425;1274;115157;-70
2024/03/10 09:24:42;;;;;;;12.10;7.60;;;;;;;11.80;57.55;99295.91;130441;1274;114724;-70
2024/03/10 09:27:44;;;;;;;15.20;8.90;;;;;;;11.79;57.47;99295.96;130491;1256;114723;-73
2024/03/10 09:30:48;;;;;;;13.40;7.40;;;;;;;11.70;57.13;99301.48;130522;1274;115221;-68
2024/03/10 09:33:51;;;;;;;13.00;8.00;;;;;;;11.54;57.59;99296.68;130386;1272;115099;-70
2024/03/10 09:36:54;;;;;;;10.90;7.00;;;;;;;11.40;57.65;99299.55;130491;1274;114721;-69
2024/03/10 09:39:56;;;;;;;15.30;9.60;;;;;;;11.30;57.42;99298.81;130663;1251;114727;-72
2024/03/10 09:43:04;;;;;;;12.80;6.90;;;;;;;11.20;57.69;99301.11;130498;1257;114847;-69
2024/03/10 09:46:13;;;;;;;15.20;9.60;;;;;;;11.09;57.81;99304.70;130384;1257;115329;-63
2024/03/10 09:49:21;;;;;;;12.30;8.30;;;;;;;10.99;57.83;99300.56;130362;1257;114717;-61
2024/03/10 09:52:23;;;;;;;15.70;10.10;;;;;;;10.88;58.08;99300.61;130024;1274;115003;-63
2024/03/10 09:55:26;;;;;;;17.40;9.60;;;;;;;10.78;58.24;99299.98;130339;1274;114765;-62
2024/03/10 09:58:39;;;;;;;15.40;9.70;;;;;;;10.76;58.29;99293.36;130306;1274;114744;-62
2024/03/10 10:01:46;;;;;;;18.60;11.90;;;;;;;10.74;58.70;99295.43;130078;1259;114894;-62
2024/03/10 10:04:56;;;;;;;17.10;10.10;;;;;;;10.77;58.78;99293.28;130183;1257;114709;-63
2024/03/10 10:07:59;;;;;;;18.50;11.10;;;;;;;10.77;58.59;99291.11;130005;1251;114803;-61
2024/03/10 10:11:01;;;;;;;18.60;10.90;;;;;;;10.73;58.42;99286.96;130166;1254;114729;-61
2024/03/10 10:14:10;;;;;;;20.10;11.20;;;;;;;10.72;58.56;99290.03;130397;1274;114702;-62
2024/03/10 10:17:14;;;;;;;20.90;12.60;;;;;;;10.76;58.53;99280.15;130170;1257;114797;-62
2024/03/10 10:20:23;;;;;;;18.00;11.40;;;;;;;10.83;58.67;99265.90;130277;1257;114741;-62
2024/03/10 10:23:26;;;;;;;20.60;11.70;;;;;;;11.04;58.76;99262.94;130361;1274;114725;-62
2024/03/10 10:26:28;;;;;;;14.00;8.60;;;;;;;11.20;57.95;99262.38;130322;1274;114808;-62
2024/03/10 10:29:31;;;;;;;20.00;11.40;;;;;;;11.35;57.70;99253.09;130330;1274;115427;-62
2024/03/10 10:32:33;;;;;;;16.00;10.20;;;;;;;11.49;57.93;99250.83;130337;1274;114863;-62
2024/03/10 10:35:39;;;;;;;17.00;11.40;;;;;;;11.60;57.86;99248.31;130053;1259;114919;-62
2024/03/10 10:38:47;;;;;;;14.40;9.00;;;;;;;11.73;57.62;99241.67;130197;1252;114705;-62
2024/03/10 10:41:49;;;;;;;17.10;11.40;;;;;;;11.88;57.38;99239.52;130061;1274;114805;-63
2024/03/10 10:44:52;;;;;;;16.60;11.50;;;;;;;12.05;57.80;99231.92;130260;1257;114883;-64
2024/03/10 10:47:54;;;;;;;13.90;9.20;;;;;;;12.15;57.03;99228.33;130064;1274;114799;-63
2024/03/10 10:50:56;;;;;;;16.50;10.70;;;;;;;12.19;56.96;99224.83;130321;1255;115289;-66
2024/03/10 10:53:58;;;;;;;17.90;11.40;;;;;;;12.22;57.37;99217.61;130041;1259;114951;-62
2024/03/10 10:57:06;;;;;;;17.80;10.90;;;;;;;12.26;56.65;99213.73;130232;1256;114827;-63
2024/03/10 11:00:23;;;;;;;12.80;8.10;;;;;;;12.28;56.64;99209.46;130320;1274;114734;-62
2024/03/10 11:03:28;;;;;;;17.80;10.60;;;;;;;12.25;56.88;99205.52;130109;1274;129104;-62
2024/03/10 11:06:31;;;;;;;16.20;9.30;;;;;;;12.25;56.61;99205.03;130018;1274;114914;-62
2024/03/10 11:09:33;;;;;;;19.70;11.20;;;;;;;12.19;56.69;99205.98;130371;1251;115156;-62
2024/03/10 11:12:35;;;;;;;14.90;9.70;;;;;;;12.14;56.54;99204.00;130320;1255;114718;-62
2024/03/10 11:15:38;;;;;;;12.50;7.20;;;;;;;12.11;56.82;99199.95;130405;1274;114704;-61
2024/03/10 11:18:44;;;;;;;15.30;9.90;;;;;;;12.12;57.30;99199.67;130378;1257;114798;-61
2024/03/10 11:21:50;;;;;;;13.60;7.60;;;;;;;12.14;56.91;99200.08;129944;1257;128137;-61
2024/03/10 11:25:11;;;;;;;14.80;9.10;;;;;;;12.17;57.23;99200.23;130040;1259;115097;-62
2024/03/10 11:28:13;;;;;;;16.90;9.60;;;;;;;12.22;57.33;99199.71;130075;1259;114881;-61
2024/03/10 11:31:19;;;;;;;13.70;8.50;;;;;;;12.27;57.20;99194.32;130371;1256;115306;-62
2024/03/10 11:34:21;;;;;;;14.80;8.90;;;;;;;12.34;56.97;99192.14;130133;1258;114823;-61
2024/03/10 11:37:23;;;;;;;11.60;7.50;;;;;;;12.45;56.90;99190.66;130338;1274;115382;-61
2024/03/10 11:40:30;;;;;;;11.50;7.80;;;;;;;12.57;56.76;99181.67;130386;1274;114814;-62
2024/03/10 11:43:35;;;;;;;13.40;8.30;;;;;;;12.79;56.55;99177.49;130509;1256;114798;-72
2024/03/10 11:46:37;;;;;;;16.60;6.70;;;;;;;12.98;56.37;99177.66;130469;1257;114801;-70
2024/03/10 11:49:40;;;;;;;11.60;7.20;;;;;;;13.13;55.80;99171.32;130227;1257;114737;-61
2024/03/10 11:52:42;;;;;;;14.00;8.50;;;;;;;13.27;55.97;99174.00;130539;1274;114674;-66
2024/03/10 11:55:56;;;;;;;13.10;7.70;;;;;;;13.37;55.93;99169.91;130354;1257;128498;-63
2024/03/10 11:58:58;;;;;;;12.10;7.90;;;;;;;13.48;56.04;99168.43;130229;1259;114808;-66
2024/03/10 12:02:00;;;;;;;14.90;8.00;;;;;;;13.57;55.67;99169.99;130434;1270;114798;-71
2024/03/10 12:05:05;;;;;;;14.70;9.30;;;;;;;13.62;55.47;99161.70;130387;1272;115309;-69
2024/03/10 12:08:08;;;;;;;11.50;7.10;;;;;;;13.76;55.71;99161.65;130088;1259;114823;-66
2024/03/10 12:11:11;;;;;;;14.90;10.10;;;;;;;13.88;54.91;99155.67;130228;1259;114701;-67
2024/03/10 12:14:15;;;;;;;14.10;8.60;;;;;;;13.95;55.03;99154.25;130385;1274;114733;-66
2024/03/10 12:17:17;;;;;;;11.10;6.50;;;;;;;14.03;55.25;99150.90;130332;1260;114912;-66
2024/03/10 12:20:20;;;;;;;13.90;8.20;;;;;;;14.05;54.28;99146.73;130498;1256;115397;-63
2024/03/10 12:23:26;;;;;;;13.60;9.30;;;;;;;14.03;54.57;99139.43;130495;1263;115074;-68
2024/03/10 12:26:29;;;;;;;14.60;9.30;;;;;;;14.05;54.59;99135.33;130412;1274;114705;-69
2024/03/10 12:29:31;;;;;;;13.30;7.70;;;;;;;14.01;54.44;99135.83;130253;1257;127836;-68
2024/03/10 12:32:33;;;;;;;11.30;7.90;;;;;;;13.92;54.46;99137.39;130403;1257;115174;-71
2024/03/10 12:35:39;;;;;;;15.00;8.60;;;;;;;13.83;54.94;99132.09;130449;1256;115199;-70
2024/03/10 12:38:42;;;;;;;17.90;7.00;;;;;;;13.77;54.97;99126.08;130186;1259;114807;-73
2024/03/10 12:41:45;;;;;;;13.90;9.20;;;;;;;13.74;55.08;99121.14;130489;1274;114760;-73
2024/03/10 12:44:50;;;;;;;14.30;9.80;;;;;;;13.73;55.16;99121.42;130484;1260;114740;-71
2024/03/10 12:47:53;;;;;;;14.00;8.80;;;;;;;13.74;55.33;99116.45;130278;1260;128585;-71
2024/03/10 12:50:56;;;;;;;13.90;8.40;;;;;;;13.80;55.39;99110.77;130480;1274;114705;-72
2024/03/10 12:53:58;;;;;;;14.80;9.70;;;;;;;13.85;55.34;99108.55;130458;1256;114746;-73
2024/03/10 12:57:00;;;;;;;14.20;8.90;;;;;;;13.89;55.68;99102.84;130572;1274;114731;-69
2024/03/10 13:00:52;;;;;;;13.10;9.00;;;;;;;13.98;55.61;99097.95;130187;1261;114810;-63
2024/03/10 13:03:28;;;;;;;13.00;9.30;;;;;;;14.06;55.19;99101.44;130253;1259;114885;-72
2024/03/10 13:06:34;;;;;;;15.50;9.80;;;;;;;14.12;55.29;99097.04;130197;1260;128623;-72
2024/03/10 13:09:38;;;;;;;13.80;9.40;;;;;;;14.18;55.29;99089.86;130201;1255;390895;-70
2024/03/10 13:12:41;;;;;;;13.20;9.00;;;;;;;14.24;55.01;99088.67;130589;1255;115623;-74
2024/03/10 13:15:43;;;;;;;13.50;8.40;;;;;;;14.27;55.10;99081.35;130528;1255;115328;-76
2024/03/10 13:18:46;;;;;;;11.60;8.40;;;;;;;14.35;54.95;99082.88;130613;1273;114670;-70
2024/03/10 13:21:48;;;;;;;12.40;8.40;;;;;;;14.40;54.84;99078.80;130466;1257;114827;-62
2024/03/10 13:24:51;;;;;;;13.10;8.80;;;;;;;14.36;54.42;99081.11;130563;1273;115816;-69
2024/03/10 13:27:53;;;;;;;12.40;8.80;;;;;;;14.33;54.42;99073.20;130162;1259;115198;-66
2024/03/10 13:30:57;;;;;;;18.00;10.20;;;;;;;14.31;54.50;99075.33;130400;1257;114756;-70
2024/03/10 13:34:01;;;;;;;13.20;7.70;;;;;;;14.33;54.62;99075.84;130398;1267;114689;-65
2024/03/10 13:37:05;;;;;;;13.10;7.80;;;;;;;14.30;54.41;99069.27;130414;1274;114795;-69
2024/03/10 13:40:11;;;;;;;15.50;10.20;;;;;;;14.25;54.21;99060.67;130253;1257;128847;-68
2024/03/10 13:43:14;;;;;;;15.90;10.10;;;;;;;14.18;54.54;99057.87;130382;1258;114675;-63
2024/03/10 13:46:16;;;;;;;16.70;8.40;;;;;;;14.08;54.60;99060.66;130415;1256;115399;-67
2024/03/10 13:49:19;;;;;;;11.10;7.60;;;;;;;13.96;54.75;99061.33;130426;1256;114628;-67
2024/03/10 13:52:21;;;;;;;14.10;8.30;;;;;;;13.88;54.71;99062.17;130497;1274;114824;-70
2024/03/10 13:55:23;;;;;;;13.10;9.10;;;;;;;13.80;54.87;99063.73;130478;1257;114775;-68
2024/03/10 13:58:26;;;;;;;11.40;6.10;;;;;;;13.71;54.96;99056.80;130411;1255;114712;-67
2024/03/10 14:01:30;;;;;;;12.50;8.80;;;;;;;13.62;55.02;99055.66;130402;1266;114705;-69
2024/03/10 14:04:32;;;;;;;12.70;8.40;;;;;;;13.57;55.39;99051.25;130413;1257;114791;-64
2024/03/10 14:07:37;;;;;;;12.10;7.30;;;;;;;13.53;55.77;99048.55;130368;1273;114751;-63
2024/03/10 14:10:40;;;;;;;14.20;8.00;;;;;;;13.44;55.76;99053.19;130417;1274;114966;-62
2024/03/10 14:13:44;;;;;;;11.30;7.10;;;;;;;13.34;55.84;99057.36;130304;1267;114705;-67
2024/03/10 14:16:45;;;;;;;16.10;9.50;;;;;;;13.24;55.99;99062.90;130545;1256;114772;-65